Terminal Aerodrome Forecast
Issued by NWS

Home | Current Version | Previous Version | Text Only | Print | Product List | Glossary On
Versions: 1 2 3 4 5 6 7 8 9 10 11 12 13 14 15 16 17 18 19 20
000
FTUS43 KGRR 222100 AAA
TAFAZO
TAF AMD
KAZO 222101Z 2221/2318 12007KT 6SM -RA OVC015
     FM230100 11010KT 2SM -RA BR OVC015
     FM230600 11012KT 2SM -RA BR OVC007
     FM231000 13010KT 1 1/2SM -RA BR OVC004=

USA.gov is the U.S. government's official web portal to all federal, state and local government web resources and services.